Time;durP1;ratioP1;P1;durP2;ratioP2;P2;SDS_P1;SDS_P2;PMS_P1;PMS_P2;Temp;Humidity;BMP_temperature;BMP_pressure;BME280_temperature;BME280_humidity;BME280_pressure;Samples;Min_cycle;Max_cycle;Signal;HPM_P1;HPM_P2
2022/05/19 00:01:07;;;;;;;7.50;2.60;;;15.50;81.20;;;;;;4987133;28;20216;-80
2022/05/19 00:03:39;;;;;;;8.00;3.00;;;15.50;81.30;;;;;;4995555;28;20246;-80
2022/05/19 00:06:09;;;;;;;6.70;3.00;;;15.50;81.30;;;;;;4994386;28;20578;-80
2022/05/19 00:08:38;;;;;;;10.00;3.50;;;15.50;81.60;;;;;;4989699;28;20204;-78
2022/05/19 00:11:10;;;;;;;5.30;3.00;;;15.50;81.50;;;;;;4993127;28;20209;-82
2022/05/19 00:13:38;;;;;;;7.47;2.80;;;15.50;81.40;;;;;;4984325;28;20280;-78
2022/05/19 00:16:07;;;;;;;8.43;2.90;;;15.50;81.30;;;;;;4993114;28;20844;-81
2022/05/19 00:18:38;;;;;;;5.03;3.00;;;15.50;81.20;;;;;;4987270;28;20197;-78
2022/05/19 00:21:06;;;;;;;5.30;2.90;;;15.50;81.10;;;;;;5000617;28;20204;-81
2022/05/19 00:23:35;;;;;;;6.13;2.80;;;15.50;81.00;;;;;;4991881;28;20228;-80
2022/05/19 00:26:03;;;;;;;6.20;3.00;;;15.50;80.90;;;;;;4988002;28;20204;-80
2022/05/19 00:28:32;;;;;;;7.57;3.00;;;15.50;80.80;;;;;;4984843;28;20208;-80
2022/05/19 00:31:00;;;;;;;5.40;3.20;;;15.50;80.70;;;;;;4993804;28;20199;-80
2022/05/19 00:33:28;;;;;;;10.23;3.23;;;15.50;80.80;;;;;;4989077;28;20220;-80
2022/05/19 00:35:58;;;;;;;7.43;3.47;;;15.50;81.60;;;;;;4991099;28;21254;-81
2022/05/19 00:38:26;;;;;;;7.13;3.10;;;15.40;80.70;;;;;;5000364;28;20659;-81
2022/05/19 00:40:58;;;;;;;9.63;3.23;;;15.40;80.80;;;;;;5002814;28;20216;-82
2022/05/19 00:43:30;;;;;;;7.13;3.47;;;15.40;80.70;;;;;;4985803;28;20197;-81
2022/05/19 00:46:03;;;;;;;5.47;2.73;;;15.40;80.70;;;;;;4990424;28;20846;-80
2022/05/19 00:48:41;;;;;;;6.83;3.37;;;15.40;80.50;;;;;;5003944;28;20197;-81
2022/05/19 00:51:13;;;;;;;6.07;3.33;;;15.40;80.60;;;;;;4990194;28;20193;-79
2022/05/19 00:53:46;;;;;;;7.63;3.07;;;15.40;80.60;;;;;;5002816;28;20204;-80
2022/05/19 00:56:17;;;;;;;10.43;3.87;;;15.30;80.40;;;;;;4989652;28;20192;-80
2022/05/19 00:58:49;;;;;;;9.57;3.90;;;15.30;80.50;;;;;;4996508;28;20204;-80
2022/05/19 01:01:19;;;;;;;10.37;3.60;;;15.30;80.40;;;;;;4993581;28;20224;-80
2022/05/19 01:03:52;;;;;;;8.00;3.70;;;15.30;80.40;;;;;;4996026;28;20223;-80
2022/05/19 01:06:24;;;;;;;5.70;3.37;;;15.30;80.40;;;;;;4990687;28;20203;-80
2022/05/19 01:08:57;;;;;;;6.93;3.93;;;15.30;80.20;;;;;;4983332;28;20200;-82
2022/05/19 01:11:26;;;;;;;9.87;3.70;;;15.30;80.30;;;;;;4993029;28;20192;-78
2022/05/19 01:13:54;;;;;;;9.03;3.20;;;15.30;80.20;;;;;;4986913;28;20839;-80
2022/05/19 01:16:23;;;;;;;8.23;3.73;;;15.30;80.30;;;;;;4992210;28;20299;-80
2022/05/19 01:18:52;;;;;;;4.97;3.33;;;15.30;81.00;;;;;;4993157;28;20582;-81
2022/05/19 01:21:24;;;;;;;8.27;4.03;;;15.30;81.00;;;;;;4985923;28;20220;-80
2022/05/19 01:24:06;;;;;;;5.67;2.97;;;15.20;80.10;;;;;;4985979;28;20196;-79
2022/05/19 01:26:41;;;;;;;7.47;3.13;;;15.20;80.00;;;;;;4983198;28;20215;-80
2022/05/19 01:29:11;;;;;;;9.50;3.77;;;15.20;80.00;;;;;;4992955;28;20196;-80
2022/05/19 01:31:46;;;;;;;7.47;4.10;;;15.20;80.10;;;;;;4994236;28;20367;-77
2022/05/19 01:34:15;;;;;;;6.67;3.27;;;15.10;80.00;;;;;;4984310;28;20862;-80
2022/05/19 01:36:44;;;;;;;6.90;3.97;;;15.10;80.00;;;;;;5000684;28;20765;-80
2022/05/19 01:39:14;;;;;;;5.80;3.33;;;15.10;80.00;;;;;;4988394;28;20255;-80
2022/05/19 01:41:54;;;;;;;6.27;3.30;;;15.10;80.00;;;;;;4994291;28;20211;-80
2022/05/19 01:44:38;;;;;;;7.87;3.80;;;15.00;80.00;;;;;;4998108;28;20206;-80
2022/05/19 01:47:13;;;;;;;8.43;4.03;;;15.00;80.30;;;;;;4989400;28;20224;-80
2022/05/19 01:49:50;;;;;;;10.90;3.80;;;15.00;80.30;;;;;;4989634;28;20196;-80
2022/05/19 01:52:24;;;;;;;7.33;3.90;;;15.00;80.60;;;;;;4998534;28;20208;-80
2022/05/19 01:55:01;;;;;;;6.70;3.80;;;15.00;80.90;;;;;;4996094;28;20200;-79
2022/05/19 01:57:36;;;;;;;9.37;4.17;;;14.90;80.90;;;;;;4996394;28;20193;-80
2022/05/19 02:00:09;;;;;;;8.40;3.97;;;14.90;80.90;;;;;;4989298;28;20197;-80
2022/05/19 02:02:44;;;;;;;7.27;3.97;;;14.90;81.10;;;;;;4993581;28;20211;-80
2022/05/19 02:05:20;;;;;;;6.50;3.70;;;14.80;81.00;;;;;;4998027;28;20200;-81
2022/05/19 02:07:53;;;;;;;11.50;4.13;;;14.80;81.00;;;;;;4989747;28;20197;-80
2022/05/19 02:10:26;;;;;;;10.20;3.77;;;14.80;81.00;;;;;;4998873;28;20203;-80
2022/05/19 02:12:59;;;;;;;9.03;3.83;;;14.80;81.80;;;;;;4993519;28;20192;-80
2022/05/19 02:15:30;;;;;;;6.63;3.67;;;14.80;80.90;;;;;;4999034;28;20205;-78
2022/05/19 02:18:02;;;;;;;8.57;3.87;;;14.80;80.80;;;;;;4987752;28;20193;-80
2022/05/19 02:20:32;;;;;;;7.30;4.00;;;14.80;80.90;;;;;;4988439;28;20216;-80
2022/05/19 02:23:01;;;;;;;9.67;4.03;;;14.70;81.00;;;;;;4994788;28;20281;-80
2022/05/19 02:25:40;;;;;;;8.20;3.93;;;14.70;80.90;;;;;;4991586;28;20208;-80
2022/05/19 02:28:16;;;;;;;9.27;4.77;;;14.70;80.90;;;;;;4992197;28;20205;-80
2022/05/19 02:30:45;;;;;;;8.77;4.27;;;14.70;81.00;;;;;;4991852;28;20192;-80
2022/05/19 02:33:14;;;;;;;8.90;4.20;;;14.60;80.90;;;;;;4995924;28;20202;-79
2022/05/19 02:35:43;;;;;;;8.53;3.77;;;14.60;80.90;;;;;;4986370;28;20194;-80
2022/05/19 02:38:12;;;;;;;12.33;4.27;;;14.60;80.90;;;;;;4995094;28;20200;-80
2022/05/19 02:40:41;;;;;;;9.33;4.83;;;14.60;81.00;;;;;;5001329;28;20200;-80
2022/05/19 02:43:12;;;;;;;10.10;3.97;;;14.60;81.10;;;;;;4989899;28;20212;-78
2022/05/19 02:45:41;;;;;;;7.60;4.00;;;14.60;81.00;;;;;;4984999;28;20240;-80
2022/05/19 02:48:11;;;;;;;11.87;4.83;;;14.60;81.00;;;;;;4996995;28;20228;-79
2022/05/19 02:50:42;;;;;;;8.43;4.17;;;14.60;81.10;;;;;;4995283;28;20193;-80
2022/05/19 02:53:11;;;;;;;8.67;4.47;;;14.50;81.00;;;;;;4987566;28;20193;-80
2022/05/19 02:55:40;;;;;;;9.70;4.00;;;14.50;81.00;;;;;;4996046;28;20209;-80
2022/05/19 02:58:09;;;;;;;7.40;4.20;;;14.50;81.00;;;;;;4996975;28;20196;-79
2022/05/19 03:00:40;;;;;;;13.17;4.43;;;14.50;81.00;;;;;;4993356;28;20204;-81
2022/05/19 03:03:08;;;;;;;9.77;4.27;;;14.50;81.10;;;;;;4994823;28;20197;-80
2022/05/19 03:05:38;;;;;;;9.40;4.60;;;14.50;81.10;;;;;;4994058;28;20201;-80
2022/05/19 03:08:09;;;;;;;8.67;4.10;;;14.50;81.10;;;;;;4996407;28;20200;-80
2022/05/19 03:10:39;;;;;;;7.70;4.27;;;14.50;81.10;;;;;;4990623;28;20204;-80
2022/05/19 03:13:14;;;;;;;6.90;4.03;;;14.50;81.10;;;;;;4996616;28;20193;-80
2022/05/19 03:15:44;;;;;;;7.80;4.40;;;14.50;81.20;;;;;;4989472;28;20200;-80
2022/05/19 03:18:13;;;;;;;13.60;5.00;;;14.40;81.20;;;;;;4993956;28;20200;-80
2022/05/19 03:20:41;;;;;;;8.47;5.17;;;14.40;81.30;;;;;;4985572;28;20201;-80
2022/05/19 03:23:10;;;;;;;9.83;4.63;;;14.50;81.80;;;;;;4999571;28;20220;-80
2022/05/19 03:25:39;;;;;;;10.87;4.47;;;14.40;81.60;;;;;;4993656;28;20200;-80
2022/05/19 03:28:07;;;;;;;10.77;4.60;;;14.40;81.60;;;;;;4997325;28;20200;-80
2022/05/19 03:30:36;;;;;;;10.50;4.73;;;14.50;81.80;;;;;;4985766;28;20201;-80
2022/05/19 03:33:06;;;;;;;10.07;4.40;;;14.50;81.80;;;;;;4993578;28;20211;-81
2022/05/19 03:35:35;;;;;;;12.50;4.70;;;14.50;82.00;;;;;;4991842;28;20197;-80
2022/05/19 03:38:03;;;;;;;11.10;5.47;;;14.50;82.10;;;;;;4992697;28;20200;-81
2022/05/19 03:40:32;;;;;;;11.20;4.97;;;14.50;82.10;;;;;;4994142;28;20188;-81
2022/05/19 03:43:00;;;;;;;7.60;4.07;;;14.50;82.20;;;;;;4993195;28;20221;-79
2022/05/19 03:45:29;;;;;;;9.47;4.30;;;14.50;82.20;;;;;;4989619;28;20206;-80
2022/05/19 03:47:57;;;;;;;9.60;4.10;;;14.50;82.10;;;;;;4995789;28;20262;-80
2022/05/19 03:50:27;;;;;;;6.17;4.13;;;14.60;82.20;;;;;;4995558;28;20203;-80
2022/05/19 03:52:56;;;;;;;11.97;4.03;;;14.60;82.20;;;;;;5000055;28;20200;-81
2022/05/19 03:55:26;;;;;;;9.43;3.83;;;14.60;82.20;;;;;;4993995;28;20201;-78
2022/05/19 03:57:54;;;;;;;10.37;4.70;;;14.70;82.10;;;;;;5003950;28;20207;-80
2022/05/19 04:00:23;;;;;;;8.30;4.50;;;14.70;82.10;;;;;;4991698;28;20209;-81
2022/05/19 04:03:09;;;;;;;10.93;4.57;;;14.80;82.10;;;;;;4996319;28;20252;-79
2022/05/19 04:05:39;;;;;;;6.43;4.03;;;14.80;81.90;;;;;;4996543;28;20200;-79
2022/05/19 04:08:07;;;;;;;9.50;5.10;;;14.80;81.80;;;;;;4992420;28;20216;-78
2022/05/19 04:10:42;;;;;;;10.80;4.40;;;14.90;81.80;;;;;;4990988;28;20202;-80
2022/05/19 04:13:10;;;;;;;9.03;4.33;;;14.90;81.80;;;;;;4997370;28;20211;-81
2022/05/19 04:15:39;;;;;;;7.07;4.53;;;14.90;81.60;;;;;;4997902;28;20207;-79
2022/05/19 04:18:08;;;;;;;10.60;4.40;;;15.00;81.50;;;;;;4990718;28;20213;-78
2022/05/19 04:20:37;;;;;;;9.60;4.77;;;15.00;81.50;;;;;;5000772;28;20196;-78
2022/05/19 04:23:09;;;;;;;5.67;3.80;;;15.00;81.30;;;;;;4989798;28;20224;-78
2022/05/19 04:25:39;;;;;;;7.57;4.03;;;15.00;81.30;;;;;;4992078;28;21061;-78
2022/05/19 04:28:07;;;;;;;12.77;4.47;;;15.10;81.30;;;;;;4993647;28;20208;-77
2022/05/19 04:30:35;;;;;;;10.43;3.57;;;15.00;81.20;;;;;;5005126;28;20197;-78
2022/05/19 04:33:05;;;;;;;8.33;4.00;;;15.10;81.30;;;;;;4996352;28;20203;-77
2022/05/19 04:35:33;;;;;;;10.60;4.47;;;15.10;81.30;;;;;;4992574;28;20196;-78
2022/05/19 04:38:08;;;;;;;6.93;3.67;;;15.10;81.20;;;;;;4996162;28;20206;-78
2022/05/19 04:40:38;;;;;;;5.63;3.40;;;15.20;81.20;;;;;;4991004;28;20197;-77
2022/05/19 04:43:12;;;;;;;7.50;3.63;;;15.20;81.00;;;;;;4992823;28;20852;-78
2022/05/19 04:45:40;;;;;;;7.43;4.07;;;15.30;81.00;;;;;;4989722;28;20197;-78
2022/05/19 04:48:09;;;;;;;11.63;3.97;;;15.40;80.80;;;;;;4992322;28;20742;-78
2022/05/19 04:50:39;;;;;;;6.63;3.47;;;15.50;80.80;;;;;;4992691;28;20227;-79
2022/05/19 04:53:09;;;;;;;13.17;4.37;;;15.50;80.70;;;;;;5000963;28;20833;-78
2022/05/19 04:55:38;;;;;;;9.53;3.63;;;15.50;80.70;;;;;;4994506;28;20189;-78
2022/05/19 04:58:10;;;;;;;7.73;3.93;;;15.60;80.70;;;;;;4996790;28;20208;-79
2022/05/19 05:00:41;;;;;;;9.03;3.77;;;15.60;80.70;;;;;;4979816;28;21076;-78
2022/05/19 05:03:13;;;;;;;7.70;4.10;;;15.60;80.70;;;;;;4989037;28;20693;-79
2022/05/19 05:05:41;;;;;;;7.17;4.13;;;15.70;80.60;;;;;;5001874;28;20204;-78
2022/05/19 05:08:11;;;;;;;8.17;3.90;;;15.80;80.60;;;;;;5000912;28;20662;-77
2022/05/19 05:10:40;;;;;;;5.17;3.33;;;15.80;80.50;;;;;;4989684;28;20201;-78
2022/05/19 05:13:10;;;;;;;5.23;3.43;;;15.90;80.60;;;;;;4998102;28;20200;-78
2022/05/19 05:15:44;;;;;;;6.57;3.60;;;16.00;80.50;;;;;;4991200;28;20197;-79
2022/05/19 05:18:13;;;;;;;10.73;3.50;;;16.10;80.50;;;;;;4994318;28;20306;-79
2022/05/19 05:20:44;;;;;;;10.03;3.93;;;16.10;80.30;;;;;;4997564;28;20627;-79
2022/05/19 05:23:15;;;;;;;6.10;3.53;;;16.30;80.30;;;;;;4996355;28;21053;-78
2022/05/19 05:25:43;;;;;;;11.77;4.20;;;16.30;80.10;;;;;;4997626;28;20207;-78
2022/05/19 05:28:14;;;;;;;7.70;3.60;;;16.40;80.20;;;;;;4996928;28;20789;-78
2022/05/19 05:30:43;;;;;;;10.73;3.30;;;16.50;80.00;;;;;;4993291;28;20217;-79
2022/05/19 05:33:12;;;;;;;6.90;2.80;;;16.60;79.90;;;;;;4992010;28;20212;-78
2022/05/19 05:35:40;;;;;;;14.67;3.40;;;16.60;79.60;;;;;;4993260;28;20193;-79
2022/05/19 05:38:09;;;;;;;11.20;3.03;;;16.70;79.50;;;;;;4991646;28;20608;-78
2022/05/19 05:40:40;;;;;;;9.40;3.40;;;16.80;79.50;;;;;;4996374;28;20248;-77
2022/05/19 05:43:11;;;;;;;8.23;2.70;;;16.90;79.10;;;;;;5002494;28;20267;-76
2022/05/19 05:45:40;;;;;;;8.53;3.47;;;17.00;78.60;;;;;;5000655;28;20279;-76
2022/05/19 05:48:10;;;;;;;13.50;3.53;;;17.10;77.70;;;;;;4980905;28;20231;-78
2022/05/19 05:50:39;;;;;;;5.00;2.60;;;17.10;77.70;;;;;;4991576;28;20201;-78
2022/05/19 05:53:08;;;;;;;10.27;3.00;;;17.30;77.70;;;;;;5001913;28;20188;-77
2022/05/19 05:55:40;;;;;;;7.53;2.67;;;17.40;77.60;;;;;;5010730;28;20196;-75
2022/05/19 05:58:10;;;;;;;7.00;2.40;;;17.50;76.90;;;;;;5009904;28;20279;-77
2022/05/19 06:00:39;;;;;;;4.97;2.00;;;17.60;76.70;;;;;;5002114;28;20208;-76
2022/05/19 06:03:08;;;;;;;5.33;2.13;;;17.70;76.10;;;;;;4996715;28;20216;-78
2022/05/19 06:05:36;;;;;;;5.57;2.17;;;17.80;76.00;;;;;;4995113;28;20683;-75
2022/05/19 06:08:05;;;;;;;8.00;2.03;;;17.90;75.40;;;;;;4995756;28;20280;-77
2022/05/19 06:10:34;;;;;;;6.03;1.70;;;18.00;74.80;;;;;;4988736;28;20213;-75
2022/05/19 06:13:04;;;;;;;8.63;2.07;;;18.10;74.30;;;;;;5003518;28;20205;-77
2022/05/19 06:15:38;;;;;;;3.67;1.70;;;18.20;73.70;;;;;;4996340;28;20205;-75
2022/05/19 06:18:07;;;;;;;6.40;1.63;;;18.30;73.30;;;;;;4939061;28;20697;-75
2022/05/19 06:20:36;;;;;;;2.23;1.40;;;18.40;73.10;;;;;;5006489;28;20215;-76
2022/05/19 06:23:05;;;;;;;4.50;1.70;;;18.50;72.60;;;;;;4997405;28;20228;-75
2022/05/19 06:25:33;;;;;;;2.73;1.53;;;18.60;72.10;;;;;;4992614;28;20471;-75
2022/05/19 06:28:03;;;;;;;4.60;1.60;;;18.70;71.30;;;;;;4995637;28;20813;-76
2022/05/19 06:30:32;;;;;;;4.10;1.67;;;18.80;70.80;;;;;;5005527;28;20197;-75
2022/05/19 06:33:01;;;;;;;5.30;1.50;;;18.80;70.00;;;;;;5006244;28;20886;-76
2022/05/19 06:35:31;;;;;;;4.53;1.47;;;18.90;68.70;;;;;;5005765;28;20200;-75
2022/05/19 06:38:00;;;;;;;5.10;1.27;;;18.90;68.30;;;;;;4999810;28;20197;-75
2022/05/19 06:40:30;;;;;;;4.47;1.43;;;19.00;68.20;;;;;;4999092;28;20196;-74
2022/05/19 06:42:59;;;;;;;4.43;1.50;;;19.10;68.00;;;;;;5000385;28;20216;-76
2022/05/19 06:45:30;;;;;;;2.37;1.37;;;19.10;67.90;;;;;;4999619;28;20199;-76
2022/05/19 06:47:59;;;;;;;1.97;1.20;;;19.20;67.00;;;;;;5005502;28;20319;-75
2022/05/19 06:50:27;;;;;;;2.90;1.30;;;19.30;65.90;;;;;;5005314;28;20200;-75
2022/05/19 06:53:01;;;;;;;6.50;1.10;;;19.40;65.10;;;;;;5001367;28;20205;-76
2022/05/19 06:55:32;;;;;;;4.07;0.90;;;19.40;63.60;;;;;;5002284;28;20227;-75
2022/05/19 06:58:01;;;;;;;5.30;0.87;;;19.50;63.40;;;;;;5006839;28;20698;-75
2022/05/19 07:00:31;;;;;;;2.73;1.60;;;19.50;62.60;;;;;;5003830;28;20598;-74
2022/05/19 07:03:01;;;;;;;3.93;0.70;;;19.60;62.00;;;;;;4997141;28;20197;-75
2022/05/19 07:05:31;;;;;;;1.47;0.93;;;19.60;61.60;;;;;;4993491;28;20709;-76
2022/05/19 07:08:00;;;;;;;2.37;0.70;;;19.70;60.50;;;;;;5000637;28;20197;-75
2022/05/19 07:10:28;;;;;;;2.97;0.80;;;19.80;59.80;;;;;;4992844;28;20200;-76
2022/05/19 07:12:58;;;;;;;5.53;0.80;;;19.80;59.70;;;;;;4995153;28;20205;-77
2022/05/19 07:15:28;;;;;;;3.77;0.80;;;19.90;59.50;;;;;;4996378;28;20212;-76
2022/05/19 07:17:57;;;;;;;3.23;0.90;;;19.90;59.00;;;;;;4997834;28;20716;-76
2022/05/19 07:23:14;;;;;;;4.33;0.93;;;20.00;58.50;;;;;;5003923;28;20219;-75
2022/05/19 07:25:43;;;;;;;2.17;1.23;;;20.10;57.40;;;;;;4986650;28;20201;-75
2022/05/19 07:28:12;;;;;;;3.47;0.90;;;20.10;56.60;;;;;;4995134;28;20204;-75
2022/05/19 07:30:41;;;;;;;3.70;0.77;;;20.20;57.10;;;;;;4996064;28;20200;-76
2022/05/19 07:33:11;;;;;;;5.13;1.03;;;20.20;56.10;;;;;;5005975;28;20208;-74
2022/05/19 07:35:44;;;;;;;3.57;1.00;;;20.20;55.80;;;;;;5005284;28;20295;-76
2022/05/19 07:38:13;;;;;;;5.47;0.90;;;20.30;56.50;;;;;;5004955;28;20219;-77
2022/05/19 07:40:41;;;;;;;3.13;0.80;;;20.30;56.60;;;;;;4997601;28;20200;-76
2022/05/19 07:45:55;;;;;;;1.87;1.00;;;20.40;54.50;;;;;;5006022;28;20204;-77
2022/05/19 07:48:25;;;;;;;1.97;0.70;;;20.40;54.20;;;;;;5005072;28;20232;-76
2022/05/19 07:50:54;;;;;;;1.93;0.80;;;20.50;54.90;;;;;;5005043;28;20197;-77
2022/05/19 07:53:23;;;;;;;3.83;1.00;;;20.50;54.00;;;;;;5002344;28;20205;-77
2022/05/19 07:55:51;;;;;;;2.43;0.80;;;20.50;54.30;;;;;;4998453;28;20205;-77
2022/05/19 07:58:20;;;;;;;4.53;0.80;;;20.60;54.20;;;;;;5004651;28;20204;-76
2022/05/19 08:00:51;;;;;;;2.07;0.80;;;20.60;54.40;;;;;;5000176;28;20197;-76
2022/05/19 08:03:22;;;;;;;1.30;0.70;;;20.60;54.00;;;;;;4996584;28;20680;-76
2022/05/19 08:05:53;;;;;;;1.70;0.98;;;20.80;54.30;;;;;;4990607;28;20200;-76
2022/05/19 08:08:21;;;;;;;1.40;0.83;;;20.80;54.10;;;;;;4996855;28;20196;-76
2022/05/19 08:10:49;;;;;;;3.87;1.00;;;20.80;53.40;;;;;;5004496;28;20211;-76
2022/05/19 08:16:04;;;;;;;1.53;0.70;;;20.90;53.50;;;;;;5003154;28;20210;-77
2022/05/19 08:18:33;;;;;;;4.40;1.00;;;20.90;53.40;;;;;;4997464;28;20211;-75
2022/05/19 08:21:05;;;;;;;1.60;0.70;;;21.00;53.30;;;;;;5004980;28;20215;-77
2022/05/19 08:23:36;;;;;;;1.13;0.70;;;21.00;53.30;;;;;;4987905;28;20196;-75
2022/05/19 08:26:08;;;;;;;4.25;1.30;;;21.10;53.00;;;;;;5002729;28;20682;-75
2022/05/19 08:28:37;;;;;;;1.58;0.77;;;21.10;52.60;;;;;;5005434;28;20618;-76
2022/05/19 08:31:07;;;;;;;5.63;0.80;;;21.10;52.10;;;;;;5004608;28;20219;-78
2022/05/19 08:33:37;;;;;;;1.30;0.75;;;21.20;51.30;;;;;;5000592;28;20203;-76
2022/05/19 08:36:08;;;;;;;4.38;1.10;;;21.20;51.00;;;;;;5004449;28;20200;-77
2022/05/19 08:38:37;;;;;;;2.30;0.90;;;21.20;48.50;;;;;;5003603;28;20200;-76
2022/05/19 08:41:09;;;;;;;5.72;1.00;;;21.20;49.40;;;;;;5002320;28;20213;-76
2022/05/19 08:43:44;;;;;;;1.17;0.90;;;21.30;49.80;;;;;;5001565;28;20193;-77
2022/05/19 08:46:19;;;;;;;1.67;0.83;;;21.20;50.20;;;;;;5003154;28;20196;-76
2022/05/19 08:48:53;;;;;;;1.65;0.70;;;21.30;50.50;;;;;;4998852;28;20200;-76
2022/05/19 08:51:26;;;;;;;2.85;0.80;;;21.40;51.00;;;;;;4995060;28;20203;-77
2022/05/19 08:54:03;;;;;;;1.42;0.98;;;21.40;50.50;;;;;;5004311;28;20200;-77
2022/05/19 08:56:36;;;;;;;2.00;0.73;;;21.50;49.90;;;;;;5004109;28;21048;-78
2022/05/19 08:59:23;;;;;;;2.83;0.80;;;21.50;49.70;;;;;;5004110;28;20203;-79
2022/05/19 09:01:57;;;;;;;3.33;0.90;;;21.60;49.90;;;;;;5004797;28;20246;-75
2022/05/19 09:04:36;;;;;;;1.10;0.70;;;21.60;48.90;;;;;;5003284;28;20200;-76
2022/05/19 09:10:09;;;;;;;2.50;0.60;;;21.70;48.80;;;;;;5000654;28;20242;-75
2022/05/19 09:12:39;;;;;;;3.22;1.00;;;21.80;49.60;;;;;;4995304;28;20204;-79
2022/05/19 09:15:10;;;;;;;2.13;0.93;;;21.80;49.00;;;;;;4997172;28;20195;-75
2022/05/19 09:17:41;;;;;;;3.35;0.90;;;21.80;48.60;;;;;;5004234;28;20196;-77
2022/05/19 09:20:12;;;;;;;2.45;0.80;;;21.80;48.50;;;;;;5003352;28;20204;-78
2022/05/19 09:22:42;;;;;;;4.65;0.90;;;21.90;48.70;;;;;;5001088;28;20204;-76
2022/05/19 09:25:21;;;;;;;3.35;0.90;;;21.90;48.90;;;;;;4992298;28;20220;-78
2022/05/19 09:27:51;;;;;;;2.10;0.65;;;22.00;48.60;;;;;;4986494;28;20583;-79
2022/05/19 09:30:32;;;;;;;1.10;0.70;;;22.10;48.50;;;;;;4995225;28;20256;-79
2022/05/19 09:33:00;;;;;;;0.65;0.60;;;22.10;48.00;;;;;;4997468;28;20230;-79
2022/05/19 09:35:35;;;;;;;2.20;0.80;;;22.10;47.80;;;;;;4989098;28;20193;-79
2022/05/19 09:38:12;;;;;;;2.10;0.80;;;22.20;47.40;;;;;;4995760;28;20192;-79
2022/05/19 09:40:44;;;;;;;2.85;0.80;;;22.20;47.10;;;;;;4993153;28;20196;-79
2022/05/19 09:43:19;;;;;;;1.25;0.70;;;22.20;47.50;;;;;;5003758;28;20290;-80
2022/05/19 09:45:50;;;;;;;2.17;1.10;;;22.30;47.40;;;;;;5003366;28;20216;-74
2022/05/19 09:48:27;;;;;;;1.73;0.90;;;22.30;47.40;;;;;;5006211;28;20702;-76
2022/05/19 09:51:03;;;;;;;2.53;0.77;;;22.30;46.90;;;;;;4993634;28;20861;-74
2022/05/19 09:53:40;;;;;;;2.40;1.00;;;22.20;45.80;;;;;;5004319;28;20283;-78
2022/05/19 09:56:12;;;;;;;1.20;0.80;;;22.30;46.80;;;;;;4993838;28;20196;-78
2022/05/19 09:58:46;;;;;;;1.80;0.73;;;22.20;46.00;;;;;;5000057;28;20188;-73
2022/05/19 10:01:21;;;;;;;3.55;1.00;;;22.30;47.00;;;;;;4999628;28;20293;-74
2022/05/19 10:03:58;;;;;;;1.40;0.90;;;22.40;47.50;;;;;;4987330;28;20715;-74
2022/05/19 10:06:37;;;;;;;8.73;1.08;;;22.40;47.30;;;;;;4999154;28;20307;-75
2022/05/19 10:09:13;;;;;;;3.88;1.10;;;22.40;47.50;;;;;;5001612;28;20193;-75
2022/05/19 10:11:49;;;;;;;2.53;0.82;;;22.40;46.50;;;;;;4982600;28;20204;-80
2022/05/19 10:14:19;;;;;;;2.70;0.85;;;22.50;46.30;;;;;;5004491;28;20611;-76
2022/05/19 10:17:02;;;;;;;2.75;0.90;;;22.50;46.80;;;;;;4997970;28;20609;-79
2022/05/19 10:19:39;;;;;;;1.48;0.75;;;22.60;46.90;;;;;;4998795;28;20207;-77
2022/05/19 10:22:35;;;;;;;0.70;0.70;;;22.70;46.90;;;;;;4988395;28;20201;-78
2022/05/19 10:25:34;;;;;;;3.88;0.85;;;22.70;47.10;;;;;;5001307;28;20228;-77
2022/05/19 10:31:21;;;;;;;1.65;1.00;;;22.90;46.60;;;;;;5003817;28;20208;-78
2022/05/19 10:34:14;;;;;;;3.70;1.15;;;22.90;47.00;;;;;;5005006;28;20821;-80
2022/05/19 10:36:53;;;;;;;1.58;0.90;;;22.90;47.30;;;;;;5008171;28;20195;-76
2022/05/19 10:39:42;;;;;;;1.60;0.80;;;22.90;47.00;;;;;;4994047;28;20292;-79
2022/05/19 10:42:18;;;;;;;4.72;1.02;;;22.90;46.80;;;;;;4995959;28;20239;-76
2022/05/19 10:45:05;;;;;;;1.33;0.88;;;23.00;46.80;;;;;;4999678;28;20203;-76
2022/05/19 10:47:50;;;;;;;3.67;1.25;;;23.00;46.20;;;;;;4994525;28;20228;-78
2022/05/19 10:50:28;;;;;;;2.13;1.00;;;23.10;46.60;;;;;;5002926;28;20200;-78
2022/05/19 10:53:27;;;;;;;2.47;1.08;;;23.10;47.10;;;;;;4998063;28;20193;-80
2022/05/19 10:56:21;;;;;;;5.00;0.88;;;23.10;48.00;;;;;;5000278;28;20222;-79
2022/05/19 10:59:06;;;;;;;4.05;1.08;;;23.00;49.70;;;;;;5001454;28;20192;-76
2022/05/19 11:01:53;;;;;;;4.28;0.98;;;23.10;48.70;;;;;;5005208;28;20199;-75
2022/05/19 11:04:51;;;;;;;2.72;1.00;;;23.20;49.10;;;;;;4994752;28;20223;-80
2022/05/19 11:07:38;;;;;;;2.67;1.10;;;23.20;49.20;;;;;;5006513;28;20212;-78
2022/05/19 11:10:21;;;;;;;3.55;1.20;;;23.20;49.90;;;;;;5003761;28;20189;-78
2022/05/19 11:12:59;;;;;;;4.03;1.10;;;23.30;49.00;;;;;;4987634;28;20200;-78
2022/05/19 11:15:41;;;;;;;2.70;0.88;;;23.30;49.30;;;;;;4998322;28;20202;-80
2022/05/19 11:18:18;;;;;;;2.30;1.10;;;23.40;50.10;;;;;;4999489;28;20207;-79
2022/05/19 11:21:01;;;;;;;3.70;1.20;;;23.40;49.70;;;;;;4995261;28;20405;-80
2022/05/19 11:23:40;;;;;;;5.35;1.13;;;23.40;48.70;;;;;;4982125;28;20236;-83
2022/05/19 11:26:23;;;;;;;2.97;1.00;;;23.40;49.00;;;;;;4999906;28;20196;-76
2022/05/19 11:29:10;;;;;;;1.77;1.10;;;23.60;49.30;;;;;;5006437;28;20192;-85
2022/05/19 11:31:45;;;;;;;1.98;0.98;;;23.70;49.10;;;;;;4987351;28;20745;-82
2022/05/19 11:34:25;;;;;;;4.78;1.02;;;23.70;49.40;;;;;;4990049;28;20193;-79
2022/05/19 11:36:59;;;;;;;3.80;1.05;;;23.70;48.60;;;;;;5003640;28;20188;-81
2022/05/19 11:39:33;;;;;;;1.77;1.08;;;23.70;48.50;;;;;;4997118;28;20621;-81
2022/05/19 11:42:17;;;;;;;1.23;0.95;;;23.80;48.60;;;;;;4982724;28;20572;-84
2022/05/19 11:44:47;;;;;;;3.80;1.10;;;23.80;48.60;;;;;;4988690;28;20280;-81
2022/05/19 11:55:12;;;;;;;2.20;1.42;;;23.70;48.90;;;;;;4999798;28;20232;-80
2022/05/19 11:56:02;;;;;;;5.68;1.08;;;23.80;49.10;;;;;;4996554;28;20200;-78
2022/05/19 11:58:35;;;;;;;3.53;1.20;;;23.80;49.30;;;;;;5013309;28;20218;-78
2022/05/19 12:01:07;;;;;;;2.83;1.13;;;23.80;49.30;;;;;;5009263;28;20855;-78
2022/05/19 12:03:43;;;;;;;3.47;1.17;;;23.90;49.50;;;;;;5008935;28;20303;-79
2022/05/19 12:06:19;;;;;;;3.10;1.15;;;24.00;49.20;;;;;;5000306;28;20215;-77
2022/05/19 12:08:58;;;;;;;3.40;0.85;;;24.00;49.50;;;;;;4987639;28;20189;-82
2022/05/19 12:11:30;;;;;;;3.50;1.00;;;23.90;48.60;;;;;;4993958;28;20204;-82
2022/05/19 12:14:15;;;;;;;5.57;1.27;;;23.90;48.80;;;;;;4996318;28;20196;-80
2022/05/19 12:16:51;;;;;;;2.78;1.00;;;23.80;48.60;;;;;;5000568;28;20895;-78
2022/05/19 12:19:35;;;;;;;5.47;1.20;;;23.80;48.60;;;;;;5001516;28;20196;-82
2022/05/19 12:22:05;;;;;;;2.35;1.00;;;23.90;48.80;;;;;;4985352;28;20193;-77
2022/05/19 12:24:37;;;;;;;1.42;0.95;;;23.90;48.60;;;;;;4995061;28;20204;-78
2022/05/19 12:27:13;;;;;;;6.32;1.20;;;23.90;48.80;;;;;;4994465;28;20208;-80
2022/05/19 12:29:48;;;;;;;2.08;1.30;;;24.00;49.40;;;;;;4983177;28;20204;-79
2022/05/19 12:32:21;;;;;;;3.67;1.10;;;24.00;48.30;;;;;;4987122;28;20200;-78
2022/05/19 12:34:57;;;;;;;7.35;1.98;;;24.00;48.60;;;;;;4979918;28;20196;-80
2022/05/19 12:37:38;;;;;;;3.55;1.05;;;24.10;48.40;;;;;;4990674;28;20839;-82
2022/05/19 12:40:30;;;;;;;2.35;1.33;;;24.10;48.60;;;;;;4993896;28;20220;-83
2022/05/19 12:43:37;;;;;;;3.67;1.10;;;24.20;48.40;;;;;;4998385;28;20200;-81
2022/05/19 12:46:09;;;;;;;2.05;1.20;;;24.20;47.80;;;;;;4989339;28;20594;-80
2022/05/19 12:48:51;;;;;;;6.05;1.23;;;24.30;47.80;;;;;;4989623;28;20229;-79
2022/05/19 12:51:28;;;;;;;2.85;1.30;;;24.30;47.90;;;;;;4998948;28;20196;-84
2022/05/19 12:54:08;;;;;;;4.47;1.02;;;24.30;47.30;;;;;;4996683;28;20206;-76
2022/05/19 12:56:59;;;;;;;4.43;1.20;;;24.30;47.20;;;;;;4992308;28;20203;-77
2022/05/19 12:59:47;;;;;;;4.07;1.20;;;24.30;47.90;;;;;;5005330;28;20196;-78
2022/05/19 13:02:30;;;;;;;1.40;0.90;;;24.40;48.10;;;;;;5004814;28;20193;-82
2022/05/19 13:05:04;;;;;;;4.78;1.10;;;24.40;47.40;;;;;;5000163;28;20219;-77
2022/05/19 13:07:39;;;;;;;5.07;1.13;;;24.50;47.80;;;;;;4997185;28;20208;-79
2022/05/19 13:10:16;;;;;;;3.75;0.90;;;24.50;47.80;;;;;;4988989;28;20197;-78
2022/05/19 13:12:50;;;;;;;1.88;1.00;;;24.60;48.10;;;;;;5002923;28;20932;-76
2022/05/19 13:15:24;;;;;;;2.50;1.13;;;24.80;48.50;;;;;;5006623;28;20208;-77
2022/05/19 13:17:54;;;;;;;3.72;1.00;;;25.10;47.30;;;;;;5002207;28;20183;-77
2022/05/19 13:20:27;;;;;;;3.08;0.82;;;25.30;48.20;;;;;;5001771;28;20204;-77
2022/05/19 13:23:23;;;;;;;3.97;0.93;;;25.50;47.30;;;;;;4985399;28;20766;-76
2022/05/19 13:25:53;;;;;;;3.60;1.30;;;25.90;46.80;;;;;;4993075;28;20196;-78
2022/05/19 13:31:19;;;;;;;3.50;1.08;;;26.10;46.20;;;;;;4983580;28;20566;-75
2022/05/19 13:33:50;;;;;;;3.58;1.00;;;26.20;44.80;;;;;;4993394;28;20204;-75
2022/05/19 13:36:32;;;;;;;2.05;0.90;;;26.50;44.60;;;;;;5001496;28;20204;-73
2022/05/19 13:39:12;;;;;;;4.72;1.00;;;26.70;44.60;;;;;;5005776;28;20197;-76